sensor_id;sensor_type;location;lat;lon;timestamp;P1;durP1;ratioP1;P2;durP2;ratioP2
67896;SDS011;54698;48.428;9.964;2022-07-09T00:00:50;8.45;;;2.85;;
67896;SDS011;54698;48.428;9.964;2022-07-09T00:03:16;6.38;;;2.58;;
67896;SDS011;54698;48.428;9.964;2022-07-09T00:05:42;8.25;;;2.60;;
67896;SDS011;54698;48.428;9.964;2022-07-09T00:08:07;6.70;;;2.83;;
67896;SDS011;54698;48.428;9.964;2022-07-09T00:10:33;9.48;;;2.80;;
67896;SDS011;54698;48.428;9.964;2022-07-09T00:12:59;7.22;;;2.90;;
67896;SDS011;54698;48.428;9.964;2022-07-09T00:15:25;7.40;;;2.72;;
67896;SDS011;54698;48.428;9.964;2022-07-09T00:17:52;8.10;;;2.70;;
67896;SDS011;54698;48.428;9.964;2022-07-09T00:20:18;8.02;;;3.42;;
67896;SDS011;54698;48.428;9.964;2022-07-09T00:22:44;11.30;;;3.17;;
67896;SDS011;54698;48.428;9.964;2022-07-09T00:25:10;5.50;;;3.00;;
67896;SDS011;54698;48.428;9.964;2022-07-09T00:27:36;6.93;;;2.47;;
67896;SDS011;54698;48.428;9.964;2022-07-09T00:30:02;8.13;;;2.45;;
67896;SDS011;54698;48.428;9.964;2022-07-09T00:32:29;4.80;;;2.55;;
67896;SDS011;54698;48.428;9.964;2022-07-09T00:34:56;6.80;;;2.63;;
67896;SDS011;54698;48.428;9.964;2022-07-09T00:37:22;5.85;;;2.55;;
67896;SDS011;54698;48.428;9.964;2022-07-09T00:39:47;5.70;;;2.72;;
67896;SDS011;54698;48.428;9.964;2022-07-09T00:42:13;7.55;;;2.65;;
67896;SDS011;54698;48.428;9.964;2022-07-09T00:44:39;6.25;;;3.03;;
67896;SDS011;54698;48.428;9.964;2022-07-09T00:47:06;8.73;;;2.85;;
67896;SDS011;54698;48.428;9.964;2022-07-09T00:49:34;10.63;;;3.15;;
67896;SDS011;54698;48.428;9.964;2022-07-09T00:52:05;9.02;;;2.90;;
67896;SDS011;54698;48.428;9.964;2022-07-09T00:54:34;5.50;;;2.65;;
67896;SDS011;54698;48.428;9.964;2022-07-09T00:57:00;10.50;;;3.15;;
67896;SDS011;54698;48.428;9.964;2022-07-09T00:59:28;7.93;;;2.33;;
67896;SDS011;54698;48.428;9.964;2022-07-09T01:01:55;7.60;;;2.30;;
67896;SDS011;54698;48.428;9.964;2022-07-09T01:04:21;6.53;;;2.30;;
67896;SDS011;54698;48.428;9.964;2022-07-09T01:06:47;6.22;;;2.35;;
67896;SDS011;54698;48.428;9.964;2022-07-09T01:09:14;6.72;;;2.58;;
67896;SDS011;54698;48.428;9.964;2022-07-09T01:11:40;10.60;;;3.47;;
67896;SDS011;54698;48.428;9.964;2022-07-09T01:14:06;8.63;;;3.67;;
67896;SDS011;54698;48.428;9.964;2022-07-09T01:16:32;5.07;;;2.42;;
67896;SDS011;54698;48.428;9.964;2022-07-09T01:18:58;6.78;;;2.80;;
67896;SDS011;54698;48.428;9.964;2022-07-09T01:21:25;5.90;;;2.90;;
67896;SDS011;54698;48.428;9.964;2022-07-09T01:23:52;6.10;;;2.53;;
67896;SDS011;54698;48.428;9.964;2022-07-09T01:26:18;10.45;;;2.88;;
67896;SDS011;54698;48.428;9.964;2022-07-09T01:28:44;7.28;;;2.53;;
67896;SDS011;54698;48.428;9.964;2022-07-09T01:31:09;6.13;;;2.40;;
67896;SDS011;54698;48.428;9.964;2022-07-09T01:33:35;8.65;;;2.30;;
67896;SDS011;54698;48.428;9.964;2022-07-09T01:36:01;7.05;;;2.67;;
67896;SDS011;54698;48.428;9.964;2022-07-09T01:38:28;4.85;;;2.28;;
67896;SDS011;54698;48.428;9.964;2022-07-09T01:40:54;5.55;;;3.05;;
67896;SDS011;54698;48.428;9.964;2022-07-09T01:43:20;5.82;;;2.35;;
67896;SDS011;54698;48.428;9.964;2022-07-09T01:45:46;7.53;;;2.53;;
67896;SDS011;54698;48.428;9.964;2022-07-09T01:48:12;7.18;;;2.35;;
67896;SDS011;54698;48.428;9.964;2022-07-09T01:50:37;6.78;;;2.85;;
67896;SDS011;54698;48.428;9.964;2022-07-09T01:53:03;6.30;;;3.20;;
67896;SDS011;54698;48.428;9.964;2022-07-09T01:55:30;4.97;;;2.35;;
67896;SDS011;54698;48.428;9.964;2022-07-09T01:57:56;6.88;;;2.75;;
67896;SDS011;54698;48.428;9.964;2022-07-09T02:00:22;6.63;;;2.75;;
67896;SDS011;54698;48.428;9.964;2022-07-09T02:02:48;5.78;;;2.38;;
67896;SDS011;54698;48.428;9.964;2022-07-09T02:05:13;6.25;;;2.65;;
67896;SDS011;54698;48.428;9.964;2022-07-09T02:07:39;7.82;;;2.88;;
67896;SDS011;54698;48.428;9.964;2022-07-09T02:10:05;6.38;;;2.80;;
67896;SDS011;54698;48.428;9.964;2022-07-09T02:12:34;6.22;;;3.72;;
67896;SDS011;54698;48.428;9.964;2022-07-09T02:15:00;6.10;;;2.83;;
67896;SDS011;54698;48.428;9.964;2022-07-09T02:17:25;8.32;;;3.65;;
67896;SDS011;54698;48.428;9.964;2022-07-09T02:19:51;10.73;;;3.17;;
67896;SDS011;54698;48.428;9.964;2022-07-09T02:22:17;8.13;;;2.80;;
67896;SDS011;54698;48.428;9.964;2022-07-09T02:24:43;7.55;;;3.53;;
67896;SDS011;54698;48.428;9.964;2022-07-09T02:27:09;11.20;;;2.77;;
67896;SDS011;54698;48.428;9.964;2022-07-09T02:29:36;7.30;;;3.27;;
67896;SDS011;54698;48.428;9.964;2022-07-09T02:32:02;8.43;;;4.40;;
67896;SDS011;54698;48.428;9.964;2022-07-09T02:34:28;7.25;;;2.80;;
67896;SDS011;54698;48.428;9.964;2022-07-09T02:36:54;6.53;;;2.97;;
67896;SDS011;54698;48.428;9.964;2022-07-09T02:39:20;7.30;;;2.80;;
67896;SDS011;54698;48.428;9.964;2022-07-09T02:41:46;9.40;;;2.97;;
67896;SDS011;54698;48.428;9.964;2022-07-09T02:44:11;8.85;;;3.40;;
67896;SDS011;54698;48.428;9.964;2022-07-09T02:46:39;8.25;;;3.20;;
67896;SDS011;54698;48.428;9.964;2022-07-09T02:49:04;6.87;;;2.97;;
67896;SDS011;54698;48.428;9.964;2022-07-09T02:51:30;8.50;;;3.00;;
67896;SDS011;54698;48.428;9.964;2022-07-09T02:53:56;6.18;;;2.53;;
67896;SDS011;54698;48.428;9.964;2022-07-09T02:56:22;9.45;;;3.13;;
67896;SDS011;54698;48.428;9.964;2022-07-09T02:58:48;9.20;;;3.43;;
67896;SDS011;54698;48.428;9.964;2022-07-09T03:01:13;10.48;;;3.97;;
67896;SDS011;54698;48.428;9.964;2022-07-09T03:03:41;6.80;;;3.03;;
67896;SDS011;54698;48.428;9.964;2022-07-09T03:06:06;7.20;;;3.00;;
67896;SDS011;54698;48.428;9.964;2022-07-09T03:08:32;7.53;;;3.00;;
67896;SDS011;54698;48.428;9.964;2022-07-09T03:10:58;8.90;;;2.65;;
67896;SDS011;54698;48.428;9.964;2022-07-09T03:13:24;8.10;;;2.90;;
67896;SDS011;54698;48.428;9.964;2022-07-09T03:15:50;6.30;;;3.00;;
67896;SDS011;54698;48.428;9.964;2022-07-09T03:18:16;7.47;;;2.90;;
67896;SDS011;54698;48.428;9.964;2022-07-09T03:20:43;10.05;;;3.08;;
67896;SDS011;54698;48.428;9.964;2022-07-09T03:23:09;7.30;;;2.70;;
67896;SDS011;54698;48.428;9.964;2022-07-09T03:25:34;6.50;;;3.17;;
67896;SDS011;54698;48.428;9.964;2022-07-09T03:28:00;8.37;;;2.73;;
67896;SDS011;54698;48.428;9.964;2022-07-09T03:30:26;11.67;;;3.07;;
67896;SDS011;54698;48.428;9.964;2022-07-09T03:32:52;11.97;;;3.00;;
67896;SDS011;54698;48.428;9.964;2022-07-09T03:35:18;8.07;;;2.97;;
67896;SDS011;54698;48.428;9.964;2022-07-09T03:37:45;6.70;;;2.97;;
67896;SDS011;54698;48.428;9.964;2022-07-09T03:40:11;11.93;;;3.90;;
67896;SDS011;54698;48.428;9.964;2022-07-09T03:42:37;9.27;;;3.40;;
67896;SDS011;54698;48.428;9.964;2022-07-09T03:45:03;6.40;;;2.90;;
67896;SDS011;54698;48.428;9.964;2022-07-09T03:47:30;7.40;;;3.00;;
67896;SDS011;54698;48.428;9.964;2022-07-09T03:49:56;9.73;;;3.33;;
67896;SDS011;54698;48.428;9.964;2022-07-09T03:52:21;7.97;;;3.10;;
67896;SDS011;54698;48.428;9.964;2022-07-09T03:54:49;7.43;;;2.63;;
67896;SDS011;54698;48.428;9.964;2022-07-09T03:57:14;8.33;;;3.27;;
67896;SDS011;54698;48.428;9.964;2022-07-09T03:59:40;9.17;;;3.70;;
67896;SDS011;54698;48.428;9.964;2022-07-09T04:02:06;7.87;;;3.23;;
67896;SDS011;54698;48.428;9.964;2022-07-09T04:04:32;8.83;;;2.97;;
67896;SDS011;54698;48.428;9.964;2022-07-09T04:06:57;6.90;;;3.00;;
67896;SDS011;54698;48.428;9.964;2022-07-09T04:09:23;7.30;;;2.57;;
67896;SDS011;54698;48.428;9.964;2022-07-09T04:11:50;8.20;;;2.77;;
67896;SDS011;54698;48.428;9.964;2022-07-09T04:14:16;5.70;;;2.70;;
67896;SDS011;54698;48.428;9.964;2022-07-09T04:16:42;6.10;;;2.70;;
67896;SDS011;54698;48.428;9.964;2022-07-09T04:19:08;6.43;;;2.73;;
67896;SDS011;54698;48.428;9.964;2022-07-09T04:21:34;6.60;;;2.57;;
67896;SDS011;54698;48.428;9.964;2022-07-09T04:23:59;7.23;;;2.90;;
67896;SDS011;54698;48.428;9.964;2022-07-09T04:26:25;6.93;;;3.07;;
67896;SDS011;54698;48.428;9.964;2022-07-09T04:28:52;7.40;;;2.85;;
67896;SDS011;54698;48.428;9.964;2022-07-09T04:31:18;6.30;;;2.40;;
67896;SDS011;54698;48.428;9.964;2022-07-09T04:33:44;7.13;;;3.07;;
67896;SDS011;54698;48.428;9.964;2022-07-09T04:36:10;8.00;;;3.03;;
67896;SDS011;54698;48.428;9.964;2022-07-09T04:38:36;7.63;;;2.83;;
67896;SDS011;54698;48.428;9.964;2022-07-09T04:41:01;6.90;;;2.87;;
67896;SDS011;54698;48.428;9.964;2022-07-09T04:43:27;7.13;;;3.07;;
67896;SDS011;54698;48.428;9.964;2022-07-09T04:45:55;7.77;;;2.87;;
67896;SDS011;54698;48.428;9.964;2022-07-09T04:48:20;8.30;;;3.13;;
67896;SDS011;54698;48.428;9.964;2022-07-09T04:50:47;7.13;;;3.00;;
67896;SDS011;54698;48.428;9.964;2022-07-09T04:53:13;8.10;;;3.70;;
67896;SDS011;54698;48.428;9.964;2022-07-09T04:55:38;7.97;;;3.33;;
67896;SDS011;54698;48.428;9.964;2022-07-09T04:58:04;5.47;;;2.87;;
67896;SDS011;54698;48.428;9.964;2022-07-09T05:00:30;6.63;;;3.30;;
67896;SDS011;54698;48.428;9.964;2022-07-09T05:02:57;8.03;;;2.97;;
67896;SDS011;54698;48.428;9.964;2022-07-09T05:05:23;8.75;;;3.42;;
67896;SDS011;54698;48.428;9.964;2022-07-09T05:07:49;6.97;;;2.97;;
67896;SDS011;54698;48.428;9.964;2022-07-09T05:10:15;9.15;;;3.00;;
67896;SDS011;54698;48.428;9.964;2022-07-09T05:12:41;7.85;;;3.38;;
67896;SDS011;54698;48.428;9.964;2022-07-09T05:15:07;7.90;;;2.93;;
67896;SDS011;54698;48.428;9.964;2022-07-09T05:17:34;7.53;;;2.95;;
67896;SDS011;54698;48.428;9.964;2022-07-09T05:20:03;8.77;;;2.40;;
67896;SDS011;54698;48.428;9.964;2022-07-09T05:22:29;8.35;;;2.67;;
67896;SDS011;54698;48.428;9.964;2022-07-09T05:24:56;7.50;;;2.88;;
67896;SDS011;54698;48.428;9.964;2022-07-09T05:27:21;7.13;;;2.97;;
67896;SDS011;54698;48.428;9.964;2022-07-09T05:29:47;9.13;;;3.03;;
67896;SDS011;54698;48.428;9.964;2022-07-09T05:32:13;6.15;;;2.65;;
67896;SDS011;54698;48.428;9.964;2022-07-09T05:34:39;6.32;;;2.70;;
67896;SDS011;54698;48.428;9.964;2022-07-09T05:37:06;6.10;;;2.63;;
67896;SDS011;54698;48.428;9.964;2022-07-09T05:39:32;11.50;;;2.63;;
67896;SDS011;54698;48.428;9.964;2022-07-09T05:41:57;8.45;;;3.08;;
67896;SDS011;54698;48.428;9.964;2022-07-09T05:44:23;7.68;;;3.13;;
67896;SDS011;54698;48.428;9.964;2022-07-09T05:46:49;5.05;;;2.28;;
67896;SDS011;54698;48.428;9.964;2022-07-09T05:49:15;7.03;;;2.40;;
67896;SDS011;54698;48.428;9.964;2022-07-09T05:51:41;6.28;;;2.33;;
67896;SDS011;54698;48.428;9.964;2022-07-09T05:54:08;6.60;;;2.20;;
67896;SDS011;54698;48.428;9.964;2022-07-09T05:56:34;9.70;;;2.90;;
67896;SDS011;54698;48.428;9.964;2022-07-09T05:59:00;5.03;;;2.45;;
67896;SDS011;54698;48.428;9.964;2022-07-09T06:01:26;4.85;;;2.03;;
67896;SDS011;54698;48.428;9.964;2022-07-09T06:03:52;7.38;;;2.40;;
67896;SDS011;54698;48.428;9.964;2022-07-09T06:06:17;7.10;;;2.58;;
67896;SDS011;54698;48.428;9.964;2022-07-09T06:08:43;8.70;;;3.13;;
67896;SDS011;54698;48.428;9.964;2022-07-09T06:11:10;8.52;;;2.83;;
67896;SDS011;54698;48.428;9.964;2022-07-09T06:13:36;6.40;;;2.22;;
67896;SDS011;54698;48.428;9.964;2022-07-09T06:16:02;4.55;;;1.92;;
67896;SDS011;54698;48.428;9.964;2022-07-09T06:18:29;6.25;;;1.98;;
67896;SDS011;54698;48.428;9.964;2022-07-09T06:20:55;8.80;;;2.78;;
67896;SDS011;54698;48.428;9.964;2022-07-09T06:23:20;7.43;;;2.33;;
67896;SDS011;54698;48.428;9.964;2022-07-09T06:25:46;6.45;;;2.20;;
67896;SDS011;54698;48.428;9.964;2022-07-09T06:28:14;7.03;;;2.63;;
67896;SDS011;54698;48.428;9.964;2022-07-09T06:30:40;8.57;;;2.50;;
67896;SDS011;54698;48.428;9.964;2022-07-09T06:33:06;5.90;;;2.50;;
67896;SDS011;54698;48.428;9.964;2022-07-09T06:35:32;4.93;;;2.10;;
67896;SDS011;54698;48.428;9.964;2022-07-09T06:37:58;6.03;;;2.53;;
67896;SDS011;54698;48.428;9.964;2022-07-09T06:40:23;4.60;;;2.03;;
67896;SDS011;54698;48.428;9.964;2022-07-09T06:42:49;7.35;;;2.05;;
67896;SDS011;54698;48.428;9.964;2022-07-09T06:45:16;9.05;;;2.15;;
67896;SDS011;54698;48.428;9.964;2022-07-09T06:47:42;7.63;;;2.60;;
67896;SDS011;54698;48.428;9.964;2022-07-09T06:50:08;8.90;;;2.20;;
67896;SDS011;54698;48.428;9.964;2022-07-09T06:52:34;7.28;;;2.25;;
67896;SDS011;54698;48.428;9.964;2022-07-09T06:55:00;6.82;;;2.60;;
67896;SDS011;54698;48.428;9.964;2022-07-09T06:57:26;3.63;;;1.58;;
67896;SDS011;54698;48.428;9.964;2022-07-09T06:59:52;4.82;;;1.52;;
67896;SDS011;54698;48.428;9.964;2022-07-09T07:02:19;6.38;;;2.10;;
67896;SDS011;54698;48.428;9.964;2022-07-09T07:04:44;9.55;;;1.92;;
67896;SDS011;54698;48.428;9.964;2022-07-09T07:07:10;7.32;;;1.90;;
67896;SDS011;54698;48.428;9.964;2022-07-09T07:09:36;5.20;;;1.45;;
67896;SDS011;54698;48.428;9.964;2022-07-09T07:12:02;8.63;;;2.10;;
67896;SDS011;54698;48.428;9.964;2022-07-09T07:14:29;6.43;;;2.03;;
67896;SDS011;54698;48.428;9.964;2022-07-09T07:16:55;4.72;;;1.55;;
67896;SDS011;54698;48.428;9.964;2022-07-09T07:19:22;6.68;;;1.90;;
67896;SDS011;54698;48.428;9.964;2022-07-09T07:21:48;6.85;;;1.70;;
67896;SDS011;54698;48.428;9.964;2022-07-09T07:24:14;7.95;;;1.75;;
67896;SDS011;54698;48.428;9.964;2022-07-09T07:26:40;8.50;;;2.08;;
67896;SDS011;54698;48.428;9.964;2022-07-09T07:29:06;7.10;;;1.23;;
67896;SDS011;54698;48.428;9.964;2022-07-09T07:31:32;8.23;;;1.60;;
67896;SDS011;54698;48.428;9.964;2022-07-09T07:33:58;4.53;;;1.33;;
67896;SDS011;54698;48.428;9.964;2022-07-09T07:36:25;3.25;;;1.45;;
67896;SDS011;54698;48.428;9.964;2022-07-09T07:38:51;6.60;;;1.77;;
67896;SDS011;54698;48.428;9.964;2022-07-09T07:41:17;6.53;;;1.35;;
67896;SDS011;54698;48.428;9.964;2022-07-09T07:43:43;4.63;;;1.48;;
67896;SDS011;54698;48.428;9.964;2022-07-09T07:46:09;2.72;;;1.17;;
67896;SDS011;54698;48.428;9.964;2022-07-09T07:48:38;4.45;;;1.10;;
67896;SDS011;54698;48.428;9.964;2022-07-09T07:51:04;6.15;;;1.58;;
67896;SDS011;54698;48.428;9.964;2022-07-09T07:53:31;4.45;;;1.30;;
67896;SDS011;54698;48.428;9.964;2022-07-09T07:55:58;4.40;;;1.20;;
67896;SDS011;54698;48.428;9.964;2022-07-09T07:58:25;3.10;;;1.02;;
67896;SDS011;54698;48.428;9.964;2022-07-09T08:00:50;3.65;;;1.00;;
67896;SDS011;54698;48.428;9.964;2022-07-09T08:03:16;3.28;;;0.90;;
67896;SDS011;54698;48.428;9.964;2022-07-09T08:05:42;4.22;;;1.25;;
67896;SDS011;54698;48.428;9.964;2022-07-09T08:08:08;7.03;;;1.52;;
67896;SDS011;54698;48.428;9.964;2022-07-09T08:10:35;3.40;;;1.25;;
67896;SDS011;54698;48.428;9.964;2022-07-09T08:13:01;2.75;;;1.20;;
67896;SDS011;54698;48.428;9.964;2022-07-09T08:15:27;4.05;;;1.13;;
67896;SDS011;54698;48.428;9.964;2022-07-09T08:17:53;8.57;;;2.53;;
67896;SDS011;54698;48.428;9.964;2022-07-09T08:20:19;3.28;;;1.50;;
67896;SDS011;54698;48.428;9.964;2022-07-09T08:22:45;2.38;;;1.00;;
67896;SDS011;54698;48.428;9.964;2022-07-09T08:25:10;4.35;;;1.10;;
67896;SDS011;54698;48.428;9.964;2022-07-09T08:27:38;2.75;;;0.80;;
67896;SDS011;54698;48.428;9.964;2022-07-09T08:30:04;5.93;;;1.05;;
67896;SDS011;54698;48.428;9.964;2022-07-09T08:32:31;4.50;;;0.80;;
67896;SDS011;54698;48.428;9.964;2022-07-09T08:34:57;3.45;;;1.35;;
67896;SDS011;54698;48.428;9.964;2022-07-09T08:37:22;2.42;;;1.00;;
67896;SDS011;54698;48.428;9.964;2022-07-09T08:39:48;4.00;;;0.95;;
67896;SDS011;54698;48.428;9.964;2022-07-09T08:42:14;4.20;;;1.25;;
67896;SDS011;54698;48.428;9.964;2022-07-09T08:44:43;1.23;;;0.57;;
67896;SDS011;54698;48.428;9.964;2022-07-09T08:47:14;4.63;;;0.70;;
67896;SDS011;54698;48.428;9.964;2022-07-09T08:49:41;3.13;;;1.05;;
67896;SDS011;54698;48.428;9.964;2022-07-09T08:52:08;2.17;;;0.63;;
67896;SDS011;54698;48.428;9.964;2022-07-09T08:54:35;2.50;;;0.85;;
67896;SDS011;54698;48.428;9.964;2022-07-09T08:57:01;4.80;;;0.80;;
67896;SDS011;54698;48.428;9.964;2022-07-09T08:59:27;1.10;;;0.52;;
67896;SDS011;54698;48.428;9.964;2022-07-09T09:01:54;1.25;;;0.50;;
67896;SDS011;54698;48.428;9.964;2022-07-09T09:04:20;1.95;;;0.50;;
67896;SDS011;54698;48.428;9.964;2022-07-09T09:06:47;2.25;;;0.80;;
67896;SDS011;54698;48.428;9.964;2022-07-09T09:09:17;2.60;;;0.80;;
67896;SDS011;54698;48.428;9.964;2022-07-09T09:11:46;2.28;;;0.70;;
67896;SDS011;54698;48.428;9.964;2022-07-09T09:14:17;2.55;;;0.93;;
67896;SDS011;54698;48.428;9.964;2022-07-09T09:16:45;3.03;;;0.90;;
67896;SDS011;54698;48.428;9.964;2022-07-09T09:19:12;3.95;;;1.00;;
67896;SDS011;54698;48.428;9.964;2022-07-09T09:21:38;5.97;;;1.73;;
67896;SDS011;54698;48.428;9.964;2022-07-09T09:24:04;5.10;;;0.90;;
67896;SDS011;54698;48.428;9.964;2022-07-09T09:26:31;2.67;;;0.70;;
67896;SDS011;54698;48.428;9.964;2022-07-09T09:28:58;3.42;;;0.55;;
67896;SDS011;54698;48.428;9.964;2022-07-09T09:31:26;1.20;;;0.50;;
67896;SDS011;54698;48.428;9.964;2022-07-09T09:33:54;1.90;;;0.70;;
67896;SDS011;54698;48.428;9.964;2022-07-09T09:36:30;1.75;;;0.60;;
67896;SDS011;54698;48.428;9.964;2022-07-09T09:39:07;4.00;;;0.80;;
67896;SDS011;54698;48.428;9.964;2022-07-09T09:41:40;2.35;;;0.57;;
67896;SDS011;54698;48.428;9.964;2022-07-09T09:44:07;3.72;;;0.70;;
67896;SDS011;54698;48.428;9.964;2022-07-09T09:46:34;1.33;;;0.60;;
67896;SDS011;54698;48.428;9.964;2022-07-09T09:49:01;3.20;;;0.80;;
67896;SDS011;54698;48.428;9.964;2022-07-09T09:51:28;2.03;;;0.68;;
67896;SDS011;54698;48.428;9.964;2022-07-09T09:53:59;3.20;;;1.00;;
67896;SDS011;54698;48.428;9.964;2022-07-09T09:56:26;4.00;;;0.70;;
67896;SDS011;54698;48.428;9.964;2022-07-09T09:58:54;2.92;;;0.80;;
67896;SDS011;54698;48.428;9.964;2022-07-09T10:01:20;1.40;;;0.55;;
67896;SDS011;54698;48.428;9.964;2022-07-09T10:03:47;3.00;;;0.70;;
67896;SDS011;54698;48.428;9.964;2022-07-09T10:06:13;1.38;;;0.75;;
67896;SDS011;54698;48.428;9.964;2022-07-09T10:08:41;1.25;;;0.55;;
67896;SDS011;54698;48.428;9.964;2022-07-09T10:11:06;2.10;;;0.60;;
67896;SDS011;54698;48.428;9.964;2022-07-09T10:13:32;2.67;;;0.57;;
67896;SDS011;54698;48.428;9.964;2022-07-09T10:15:58;2.05;;;0.50;;
67896;SDS011;54698;48.428;9.964;2022-07-09T10:18:24;0.77;;;0.50;;
67896;SDS011;54698;48.428;9.964;2022-07-09T10:20:54;3.70;;;0.70;;
67896;SDS011;54698;48.428;9.964;2022-07-09T10:23:21;2.55;;;0.60;;
67896;SDS011;54698;48.428;9.964;2022-07-09T10:25:49;1.55;;;0.60;;
67896;SDS011;54698;48.428;9.964;2022-07-09T10:28:16;1.75;;;0.57;;
67896;SDS011;54698;48.428;9.964;2022-07-09T10:30:42;1.58;;;0.60;;
67896;SDS011;54698;48.428;9.964;2022-07-09T10:33:11;4.68;;;1.23;;
67896;SDS011;54698;48.428;9.964;2022-07-09T10:35:38;3.53;;;0.73;;
67896;SDS011;54698;48.428;9.964;2022-07-09T10:38:06;2.30;;;0.60;;
67896;SDS011;54698;48.428;9.964;2022-07-09T10:40:37;3.90;;;1.15;;
67896;SDS011;54698;48.428;9.964;2022-07-09T10:43:05;2.63;;;0.60;;
67896;SDS011;54698;48.428;9.964;2022-07-09T10:45:38;2.72;;;0.70;;
67896;SDS011;54698;48.428;9.964;2022-07-09T10:48:06;3.50;;;0.80;;
67896;SDS011;54698;48.428;9.964;2022-07-09T10:50:36;3.53;;;1.08;;
67896;SDS011;54698;48.428;9.964;2022-07-09T10:53:04;4.05;;;1.00;;
67896;SDS011;54698;48.428;9.964;2022-07-09T10:55:30;2.65;;;0.95;;
67896;SDS011;54698;48.428;9.964;2022-07-09T10:57:56;1.77;;;0.70;;
67896;SDS011;54698;48.428;9.964;2022-07-09T11:00:24;1.70;;;0.60;;
67896;SDS011;54698;48.428;9.964;2022-07-09T11:02:55;2.55;;;0.73;;
67896;SDS011;54698;48.428;9.964;2022-07-09T11:05:23;2.70;;;0.88;;
67896;SDS011;54698;48.428;9.964;2022-07-09T11:07:54;2.40;;;0.93;;
67896;SDS011;54698;48.428;9.964;2022-07-09T11:10:25;3.00;;;1.17;;
67896;SDS011;54698;48.428;9.964;2022-07-09T11:12:51;2.05;;;0.60;;
67896;SDS011;54698;48.428;9.964;2022-07-09T11:15:17;1.85;;;0.60;;
67896;SDS011;54698;48.428;9.964;2022-07-09T11:17:45;2.28;;;0.60;;
67896;SDS011;54698;48.428;9.964;2022-07-09T11:20:19;1.90;;;0.50;;
67896;SDS011;54698;48.428;9.964;2022-07-09T11:22:46;2.38;;;0.60;;
67896;SDS011;54698;48.428;9.964;2022-07-09T11:25:12;1.08;;;0.40;;
67896;SDS011;54698;48.428;9.964;2022-07-09T11:27:39;1.52;;;0.60;;
67896;SDS011;54698;48.428;9.964;2022-07-09T11:30:05;0.82;;;0.40;;
67896;SDS011;54698;48.428;9.964;2022-07-09T11:32:36;2.83;;;0.80;;
67896;SDS011;54698;48.428;9.964;2022-07-09T11:35:03;1.55;;;0.50;;
67896;SDS011;54698;48.428;9.964;2022-07-09T11:37:30;1.63;;;0.57;;
67896;SDS011;54698;48.428;9.964;2022-07-09T11:39:56;1.52;;;0.60;;
67896;SDS011;54698;48.428;9.964;2022-07-09T11:42:22;1.58;;;0.50;;
67896;SDS011;54698;48.428;9.964;2022-07-09T11:44:54;2.90;;;0.65;;
67896;SDS011;54698;48.428;9.964;2022-07-09T11:47:30;1.88;;;0.60;;
67896;SDS011;54698;48.428;9.964;2022-07-09T11:50:05;2.05;;;0.70;;
67896;SDS011;54698;48.428;9.964;2022-07-09T11:52:33;3.95;;;1.15;;
67896;SDS011;54698;48.428;9.964;2022-07-09T11:55:00;1.55;;;0.77;;
67896;SDS011;54698;48.428;9.964;2022-07-09T11:57:28;0.98;;;0.47;;
67896;SDS011;54698;48.428;9.964;2022-07-09T11:59:55;2.85;;;0.77;;
67896;SDS011;54698;48.428;9.964;2022-07-09T12:02:22;3.53;;;0.90;;
67896;SDS011;54698;48.428;9.964;2022-07-09T12:04:49;1.95;;;0.70;;
67896;SDS011;54698;48.428;9.964;2022-07-09T12:07:20;1.55;;;0.55;;
67896;SDS011;54698;48.428;9.964;2022-07-09T12:09:46;2.15;;;0.70;;
67896;SDS011;54698;48.428;9.964;2022-07-09T12:12:23;1.73;;;0.70;;
67896;SDS011;54698;48.428;9.964;2022-07-09T12:14:49;3.28;;;0.80;;
67896;SDS011;54698;48.428;9.964;2022-07-09T12:17:17;2.15;;;0.52;;
67896;SDS011;54698;48.428;9.964;2022-07-09T12:19:43;2.08;;;0.70;;
67896;SDS011;54698;48.428;9.964;2022-07-09T12:22:09;2.40;;;0.70;;
67896;SDS011;54698;48.428;9.964;2022-07-09T12:24:36;2.88;;;0.70;;
67896;SDS011;54698;48.428;9.964;2022-07-09T12:27:02;3.38;;;0.70;;
67896;SDS011;54698;48.428;9.964;2022-07-09T12:29:28;2.25;;;0.50;;
67896;SDS011;54698;48.428;9.964;2022-07-09T12:31:54;2.60;;;0.60;;
67896;SDS011;54698;48.428;9.964;2022-07-09T12:34:20;2.42;;;0.80;;
67896;SDS011;54698;48.428;9.964;2022-07-09T12:36:46;1.88;;;0.60;;
67896;SDS011;54698;48.428;9.964;2022-07-09T12:39:11;3.17;;;0.80;;
67896;SDS011;54698;48.428;9.964;2022-07-09T12:41:39;5.95;;;0.90;;
67896;SDS011;54698;48.428;9.964;2022-07-09T12:44:04;3.45;;;0.77;;
67896;SDS011;54698;48.428;9.964;2022-07-09T12:46:30;3.50;;;0.80;;
67896;SDS011;54698;48.428;9.964;2022-07-09T12:48:56;2.13;;;0.80;;
67896;SDS011;54698;48.428;9.964;2022-07-09T12:51:22;1.63;;;0.60;;
67896;SDS011;54698;48.428;9.964;2022-07-09T12:53:47;3.20;;;0.70;;
67896;SDS011;54698;48.428;9.964;2022-07-09T12:56:13;2.72;;;0.80;;
67896;SDS011;54698;48.428;9.964;2022-07-09T12:58:40;1.02;;;0.60;;
67896;SDS011;54698;48.428;9.964;2022-07-09T13:01:06;2.88;;;0.60;;
67896;SDS011;54698;48.428;9.964;2022-07-09T13:03:32;2.30;;;0.70;;
67896;SDS011;54698;48.428;9.964;2022-07-09T13:05:58;2.58;;;0.85;;
67896;SDS011;54698;48.428;9.964;2022-07-09T13:08:24;2.33;;;0.55;;
67896;SDS011;54698;48.428;9.964;2022-07-09T13:10:49;2.38;;;0.93;;
67896;SDS011;54698;48.428;9.964;2022-07-09T13:13:15;3.92;;;0.77;;
67896;SDS011;54698;48.428;9.964;2022-07-09T13:15:42;1.88;;;0.70;;
67896;SDS011;54698;48.428;9.964;2022-07-09T13:18:08;2.13;;;0.80;;
67896;SDS011;54698;48.428;9.964;2022-07-09T13:20:34;2.15;;;0.73;;
67896;SDS011;54698;48.428;9.964;2022-07-09T13:23:00;2.78;;;0.80;;
67896;SDS011;54698;48.428;9.964;2022-07-09T13:25:26;2.05;;;0.80;;
67896;SDS011;54698;48.428;9.964;2022-07-09T13:27:52;2.40;;;0.73;;
67896;SDS011;54698;48.428;9.964;2022-07-09T13:30:18;3.80;;;1.45;;
67896;SDS011;54698;48.428;9.964;2022-07-09T13:32:45;2.75;;;0.90;;
67896;SDS011;54698;48.428;9.964;2022-07-09T13:35:11;2.10;;;0.80;;
67896;SDS011;54698;48.428;9.964;2022-07-09T13:37:36;3.38;;;1.08;;
67896;SDS011;54698;48.428;9.964;2022-07-09T13:40:02;3.10;;;1.17;;
67896;SDS011;54698;48.428;9.964;2022-07-09T13:42:29;3.97;;;1.10;;
67896;SDS011;54698;48.428;9.964;2022-07-09T13:44:55;2.55;;;0.82;;
67896;SDS011;54698;48.428;9.964;2022-07-09T13:47:21;2.15;;;0.80;;
67896;SDS011;54698;48.428;9.964;2022-07-09T13:49:48;2.60;;;0.90;;
67896;SDS011;54698;48.428;9.964;2022-07-09T13:52:14;2.92;;;0.70;;
67896;SDS011;54698;48.428;9.964;2022-07-09T13:54:40;3.42;;;0.85;;
67896;SDS011;54698;48.428;9.964;2022-07-09T13:57:06;3.28;;;0.70;;
67896;SDS011;54698;48.428;9.964;2022-07-09T13:59:32;3.83;;;0.98;;
67896;SDS011;54698;48.428;9.964;2022-07-09T14:01:58;2.20;;;0.90;;
67896;SDS011;54698;48.428;9.964;2022-07-09T14:04:24;2.85;;;0.85;;
67896;SDS011;54698;48.428;9.964;2022-07-09T14:06:51;2.53;;;0.98;;
67896;SDS011;54698;48.428;9.964;2022-07-09T14:09:17;2.22;;;1.05;;
67896;SDS011;54698;48.428;9.964;2022-07-09T14:11:43;3.75;;;0.65;;
67896;SDS011;54698;48.428;9.964;2022-07-09T14:14:09;1.30;;;0.57;;
67896;SDS011;54698;48.428;9.964;2022-07-09T14:16:34;3.05;;;0.70;;
67896;SDS011;54698;48.428;9.964;2022-07-09T14:19:00;2.95;;;1.05;;
67896;SDS011;54698;48.428;9.964;2022-07-09T14:21:26;3.83;;;0.77;;
67896;SDS011;54698;48.428;9.964;2022-07-09T14:23:54;2.58;;;0.60;;
67896;SDS011;54698;48.428;9.964;2022-07-09T14:26:20;3.65;;;0.80;;
67896;SDS011;54698;48.428;9.964;2022-07-09T14:28:46;1.35;;;0.60;;
67896;SDS011;54698;48.428;9.964;2022-07-09T14:31:11;4.80;;;0.80;;
67896;SDS011;54698;48.428;9.964;2022-07-09T14:33:37;1.85;;;0.73;;
67896;SDS011;54698;48.428;9.964;2022-07-09T14:36:03;1.75;;;0.65;;
67896;SDS011;54698;48.428;9.964;2022-07-09T14:38:30;1.35;;;0.60;;
67896;SDS011;54698;48.428;9.964;2022-07-09T14:40:57;3.13;;;0.70;;
67896;SDS011;54698;48.428;9.964;2022-07-09T14:43:23;2.72;;;0.80;;